Main page
METAR-TAF:

METAR-TAF

Airports :

Passo Rolle, Italy

latitude: 46-18N, longitude: 011-47E, elevation: 2004 m

Current weather observation

The report was made 52 minutes ago, at 16:55 UTC
Wind 5 kt from the Southeast
Temperature 8°C
Humidity 87%
Pressure 1020 hPa
Visibility 10 km or more
Scattered clouds at a height of 1000 ft
Broken clouds at a height of 3000 ft

METAR: LIVR 141655Z 13005KT 9999 SCT010 BKN030 08/06 Q1020 RMK OVC MON CLD SCT VIS MIN 9999

Time: 19:47 (17:47 UTC)


TAF: missing

Weather observations and forecasts of more than 4000 airports (METAR and TAF reports).

The available stations are represented by yellow and red dots on the map.

Hover mouse over dot to see the name of the station.

Then click to see weather observations and forecasts.

To change the map : click on the green buttons with a black cross to zoom in, on the green button with a dash to zoom out, or on the green arrows for adjacent maps.


METAR-TAF: